sensor_id;sensor_type;location;lat;lon;timestamp;P1;durP1;ratioP1;P2;durP2;ratioP2
22030;SDS011;11179;52.106;21.024;2024-02-26T00:00:06;50.33;;;21.97;;
22030;SDS011;11179;52.106;21.024;2024-02-26T00:02:37;48.07;;;20.87;;
22030;SDS011;11179;52.106;21.024;2024-02-26T00:05:06;40.30;;;18.90;;
22030;SDS011;11179;52.106;21.024;2024-02-26T00:07:32;42.20;;;19.00;;
22030;SDS011;11179;52.106;21.024;2024-02-26T00:09:57;43.77;;;19.53;;
22030;SDS011;11179;52.106;21.024;2024-02-26T00:12:22;43.63;;;19.07;;
22030;SDS011;11179;52.106;21.024;2024-02-26T00:14:48;43.60;;;19.57;;
22030;SDS011;11179;52.106;21.024;2024-02-26T00:17:14;43.87;;;20.10;;
22030;SDS011;11179;52.106;21.024;2024-02-26T00:19:40;54.70;;;23.30;;
22030;SDS011;11179;52.106;21.024;2024-02-26T00:22:06;43.23;;;20.17;;
22030;SDS011;11179;52.106;21.024;2024-02-26T00:24:31;38.73;;;18.20;;
22030;SDS011;11179;52.106;21.024;2024-02-26T00:26:56;34.70;;;16.77;;
22030;SDS011;11179;52.106;21.024;2024-02-26T00:29:22;37.40;;;17.43;;
22030;SDS011;11179;52.106;21.024;2024-02-26T00:31:48;38.70;;;18.17;;
22030;SDS011;11179;52.106;21.024;2024-02-26T00:34:13;39.53;;;17.63;;
22030;SDS011;11179;52.106;21.024;2024-02-26T00:36:39;34.00;;;15.23;;
22030;SDS011;11179;52.106;21.024;2024-02-26T00:39:04;41.00;;;16.80;;
22030;SDS011;11179;52.106;21.024;2024-02-26T00:41:29;36.00;;;16.57;;
22030;SDS011;11179;52.106;21.024;2024-02-26T00:43:55;36.20;;;17.20;;
22030;SDS011;11179;52.106;21.024;2024-02-26T00:46:20;34.07;;;16.47;;
22030;SDS011;11179;52.106;21.024;2024-02-26T00:48:45;40.57;;;18.00;;
22030;SDS011;11179;52.106;21.024;2024-02-26T00:51:11;45.27;;;19.93;;
22030;SDS011;11179;52.106;21.024;2024-02-26T00:53:36;49.53;;;22.20;;
22030;SDS011;11179;52.106;21.024;2024-02-26T00:56:01;51.60;;;24.03;;
22030;SDS011;11179;52.106;21.024;2024-02-26T00:58:27;59.17;;;25.80;;
22030;SDS011;11179;52.106;21.024;2024-02-26T01:00:52;55.23;;;23.60;;
22030;SDS011;11179;52.106;21.024;2024-02-26T01:03:18;45.10;;;21.70;;
22030;SDS011;11179;52.106;21.024;2024-02-26T01:05:44;47.80;;;21.77;;
22030;SDS011;11179;52.106;21.024;2024-02-26T01:08:10;48.87;;;21.80;;
22030;SDS011;11179;52.106;21.024;2024-02-26T01:10:35;53.90;;;25.53;;
22030;SDS011;11179;52.106;21.024;2024-02-26T01:13:01;66.60;;;28.67;;
22030;SDS011;11179;52.106;21.024;2024-02-26T01:15:26;60.53;;;26.20;;
22030;SDS011;11179;52.106;21.024;2024-02-26T01:17:52;64.73;;;26.20;;
22030;SDS011;11179;52.106;21.024;2024-02-26T01:20:18;60.97;;;28.60;;
22030;SDS011;11179;52.106;21.024;2024-02-26T01:22:43;49.90;;;24.80;;
22030;SDS011;11179;52.106;21.024;2024-02-26T01:25:09;55.53;;;24.40;;
22030;SDS011;11179;52.106;21.024;2024-02-26T01:27:38;48.77;;;23.87;;
22030;SDS011;11179;52.106;21.024;2024-02-26T01:30:04;57.03;;;25.98;;
22030;SDS011;11179;52.106;21.024;2024-02-26T01:32:31;54.70;;;26.13;;
22030;SDS011;11179;52.106;21.024;2024-02-26T01:34:56;56.80;;;25.60;;
22030;SDS011;11179;52.106;21.024;2024-02-26T01:37:22;61.30;;;28.87;;
22030;SDS011;11179;52.106;21.024;2024-02-26T01:39:47;65.20;;;31.60;;
22030;SDS011;11179;52.106;21.024;2024-02-26T01:42:13;62.60;;;27.67;;
22030;SDS011;11179;52.106;21.024;2024-02-26T01:44:38;62.13;;;29.03;;
22030;SDS011;11179;52.106;21.024;2024-02-26T01:47:04;63.07;;;29.07;;
22030;SDS011;11179;52.106;21.024;2024-02-26T01:49:33;48.37;;;25.47;;
22030;SDS011;11179;52.106;21.024;2024-02-26T01:52:00;53.30;;;25.27;;
22030;SDS011;11179;52.106;21.024;2024-02-26T01:54:26;56.10;;;24.70;;
22030;SDS011;11179;52.106;21.024;2024-02-26T01:56:52;51.83;;;23.53;;
22030;SDS011;11179;52.106;21.024;2024-02-26T01:59:19;48.83;;;24.00;;
22030;SDS011;11179;52.106;21.024;2024-02-26T02:01:45;52.73;;;25.17;;
22030;SDS011;11179;52.106;21.024;2024-02-26T02:04:17;55.33;;;26.73;;
22030;SDS011;11179;52.106;21.024;2024-02-26T02:06:43;69.70;;;29.70;;
22030;SDS011;11179;52.106;21.024;2024-02-26T02:09:10;54.13;;;27.07;;
22030;SDS011;11179;52.106;21.024;2024-02-26T02:11:36;57.27;;;27.57;;
22030;SDS011;11179;52.106;21.024;2024-02-26T02:14:02;55.93;;;28.47;;
22030;SDS011;11179;52.106;21.024;2024-02-26T02:16:27;67.27;;;31.33;;
22030;SDS011;11179;52.106;21.024;2024-02-26T02:18:52;57.30;;;29.30;;
22030;SDS011;11179;52.106;21.024;2024-02-26T02:21:18;66.00;;;28.93;;
22030;SDS011;11179;52.106;21.024;2024-02-26T02:23:43;62.40;;;28.87;;
22030;SDS011;11179;52.106;21.024;2024-02-26T02:26:11;71.43;;;30.23;;
22030;SDS011;11179;52.106;21.024;2024-02-26T02:28:38;61.93;;;28.30;;
22030;SDS011;11179;52.106;21.024;2024-02-26T02:31:04;57.10;;;28.03;;
22030;SDS011;11179;52.106;21.024;2024-02-26T02:33:30;63.23;;;29.77;;
22030;SDS011;11179;52.106;21.024;2024-02-26T02:35:56;73.90;;;31.67;;
22030;SDS011;11179;52.106;21.024;2024-02-26T02:38:22;83.33;;;34.43;;
22030;SDS011;11179;52.106;21.024;2024-02-26T02:40:48;68.20;;;31.07;;
22030;SDS011;11179;52.106;21.024;2024-02-26T02:43:14;63.33;;;28.27;;
22030;SDS011;11179;52.106;21.024;2024-02-26T02:45:39;49.47;;;23.03;;
22030;SDS011;11179;52.106;21.024;2024-02-26T02:48:04;59.00;;;25.57;;
22030;SDS011;11179;52.106;21.024;2024-02-26T02:50:30;72.90;;;30.63;;
22030;SDS011;11179;52.106;21.024;2024-02-26T02:52:55;77.20;;;32.97;;
22030;SDS011;11179;52.106;21.024;2024-02-26T02:55:21;58.17;;;25.00;;
22030;SDS011;11179;52.106;21.024;2024-02-26T02:57:46;59.50;;;28.00;;
22030;SDS011;11179;52.106;21.024;2024-02-26T03:00:12;73.73;;;31.97;;
22030;SDS011;11179;52.106;21.024;2024-02-26T03:02:37;64.03;;;27.43;;
22030;SDS011;11179;52.106;21.024;2024-02-26T03:05:06;65.03;;;30.00;;
22030;SDS011;11179;52.106;21.024;2024-02-26T03:07:32;62.57;;;29.90;;
22030;SDS011;11179;52.106;21.024;2024-02-26T03:09:57;61.47;;;28.30;;
22030;SDS011;11179;52.106;21.024;2024-02-26T03:12:22;69.73;;;29.30;;
22030;SDS011;11179;52.106;21.024;2024-02-26T03:14:48;58.33;;;27.17;;
22030;SDS011;11179;52.106;21.024;2024-02-26T03:17:13;51.63;;;22.83;;
22030;SDS011;11179;52.106;21.024;2024-02-26T03:19:39;53.33;;;23.53;;
22030;SDS011;11179;52.106;21.024;2024-02-26T03:22:04;59.50;;;23.73;;
22030;SDS011;11179;52.106;21.024;2024-02-26T03:24:29;48.43;;;23.40;;
22030;SDS011;11179;52.106;21.024;2024-02-26T03:26:55;43.63;;;19.63;;
22030;SDS011;11179;52.106;21.024;2024-02-26T03:29:21;40.83;;;19.80;;
22030;SDS011;11179;52.106;21.024;2024-02-26T03:31:46;49.97;;;22.10;;
22030;SDS011;11179;52.106;21.024;2024-02-26T03:34:11;41.17;;;18.57;;
22030;SDS011;11179;52.106;21.024;2024-02-26T03:36:38;42.00;;;20.17;;
22030;SDS011;11179;52.106;21.024;2024-02-26T03:39:04;39.00;;;18.03;;
22030;SDS011;11179;52.106;21.024;2024-02-26T03:41:32;39.00;;;17.13;;
22030;SDS011;11179;52.106;21.024;2024-02-26T03:43:58;42.30;;;18.50;;
22030;SDS011;11179;52.106;21.024;2024-02-26T03:46:23;39.60;;;17.67;;
22030;SDS011;11179;52.106;21.024;2024-02-26T03:48:49;40.53;;;18.10;;
22030;SDS011;11179;52.106;21.024;2024-02-26T03:51:14;52.33;;;24.20;;
22030;SDS011;11179;52.106;21.024;2024-02-26T03:53:39;50.33;;;22.63;;
22030;SDS011;11179;52.106;21.024;2024-02-26T03:56:05;45.33;;;21.20;;
22030;SDS011;11179;52.106;21.024;2024-02-26T03:58:31;44.13;;;20.83;;
22030;SDS011;11179;52.106;21.024;2024-02-26T04:00:57;45.40;;;21.47;;
22030;SDS011;11179;52.106;21.024;2024-02-26T04:03:22;53.47;;;22.30;;
22030;SDS011;11179;52.106;21.024;2024-02-26T04:05:47;45.23;;;20.80;;
22030;SDS011;11179;52.106;21.024;2024-02-26T04:08:13;47.97;;;22.30;;
22030;SDS011;11179;52.106;21.024;2024-02-26T04:10:38;51.60;;;22.97;;
22030;SDS011;11179;52.106;21.024;2024-02-26T04:13:07;58.67;;;24.52;;
22030;SDS011;11179;52.106;21.024;2024-02-26T04:15:33;61.33;;;24.03;;
22030;SDS011;11179;52.106;21.024;2024-02-26T04:17:59;57.57;;;22.83;;
22030;SDS011;11179;52.106;21.024;2024-02-26T04:20:24;43.67;;;19.50;;
22030;SDS011;11179;52.106;21.024;2024-02-26T04:22:49;51.80;;;25.03;;
22030;SDS011;11179;52.106;21.024;2024-02-26T04:25:15;55.80;;;22.60;;
22030;SDS011;11179;52.106;21.024;2024-02-26T04:27:41;54.30;;;24.13;;
22030;SDS011;11179;52.106;21.024;2024-02-26T04:30:07;50.60;;;23.50;;
22030;SDS011;11179;52.106;21.024;2024-02-26T04:32:33;50.93;;;22.20;;
22030;SDS011;11179;52.106;21.024;2024-02-26T04:34:59;43.40;;;19.73;;
22030;SDS011;11179;52.106;21.024;2024-02-26T04:37:25;46.33;;;20.40;;
22030;SDS011;11179;52.106;21.024;2024-02-26T04:39:55;46.17;;;22.43;;
22030;SDS011;11179;52.106;21.024;2024-02-26T04:42:22;58.63;;;22.27;;
22030;SDS011;11179;52.106;21.024;2024-02-26T04:44:47;39.17;;;20.20;;
22030;SDS011;11179;52.106;21.024;2024-02-26T04:47:13;42.40;;;19.00;;
22030;SDS011;11179;52.106;21.024;2024-02-26T04:49:39;46.83;;;19.70;;
22030;SDS011;11179;52.106;21.024;2024-02-26T04:52:04;47.77;;;20.20;;
22030;SDS011;11179;52.106;21.024;2024-02-26T04:54:30;41.67;;;18.40;;
22030;SDS011;11179;52.106;21.024;2024-02-26T04:56:55;45.40;;;18.40;;
22030;SDS011;11179;52.106;21.024;2024-02-26T04:59:20;45.03;;;20.60;;
22030;SDS011;11179;52.106;21.024;2024-02-26T05:01:46;49.17;;;21.27;;
22030;SDS011;11179;52.106;21.024;2024-02-26T05:04:11;42.97;;;20.97;;
22030;SDS011;11179;52.106;21.024;2024-02-26T05:06:37;48.63;;;23.07;;
22030;SDS011;11179;52.106;21.024;2024-02-26T05:09:03;47.90;;;20.83;;
22030;SDS011;11179;52.106;21.024;2024-02-26T05:11:28;48.07;;;21.60;;
22030;SDS011;11179;52.106;21.024;2024-02-26T05:13:54;43.90;;;21.63;;
22030;SDS011;11179;52.106;21.024;2024-02-26T05:16:19;41.37;;;20.33;;
22030;SDS011;11179;52.106;21.024;2024-02-26T05:18:46;40.15;;;18.75;;
22030;SDS011;11179;52.106;21.024;2024-02-26T05:21:11;38.47;;;18.20;;
22030;SDS011;11179;52.106;21.024;2024-02-26T05:23:37;39.07;;;18.60;;
22030;SDS011;11179;52.106;21.024;2024-02-26T05:26:05;48.87;;;21.60;;
22030;SDS011;11179;52.106;21.024;2024-02-26T05:28:30;41.80;;;19.40;;
22030;SDS011;11179;52.106;21.024;2024-02-26T05:30:56;38.33;;;18.70;;
22030;SDS011;11179;52.106;21.024;2024-02-26T05:33:21;48.53;;;20.33;;
22030;SDS011;11179;52.106;21.024;2024-02-26T05:35:48;45.97;;;21.23;;
22030;SDS011;11179;52.106;21.024;2024-02-26T05:38:13;43.40;;;20.93;;
22030;SDS011;11179;52.106;21.024;2024-02-26T05:40:38;41.27;;;18.20;;
22030;SDS011;11179;52.106;21.024;2024-02-26T05:43:04;38.50;;;17.37;;
22030;SDS011;11179;52.106;21.024;2024-02-26T05:45:29;39.13;;;18.80;;
22030;SDS011;11179;52.106;21.024;2024-02-26T05:47:55;40.00;;;19.10;;
22030;SDS011;11179;52.106;21.024;2024-02-26T05:50:20;44.90;;;19.20;;
22030;SDS011;11179;52.106;21.024;2024-02-26T05:52:45;43.33;;;18.53;;
22030;SDS011;11179;52.106;21.024;2024-02-26T05:55:11;42.37;;;20.03;;
22030;SDS011;11179;52.106;21.024;2024-02-26T05:57:36;43.70;;;19.97;;
22030;SDS011;11179;52.106;21.024;2024-02-26T06:00:02;44.23;;;20.03;;
22030;SDS011;11179;52.106;21.024;2024-02-26T06:02:30;42.50;;;19.63;;
22030;SDS011;11179;52.106;21.024;2024-02-26T06:04:56;36.10;;;19.17;;
22030;SDS011;11179;52.106;21.024;2024-02-26T06:07:22;37.85;;;19.23;;
22030;SDS011;11179;52.106;21.024;2024-02-26T06:09:48;42.70;;;19.27;;
22030;SDS011;11179;52.106;21.024;2024-02-26T06:12:13;50.23;;;22.83;;
22030;SDS011;11179;52.106;21.024;2024-02-26T06:14:39;48.10;;;20.97;;
22030;SDS011;11179;52.106;21.024;2024-02-26T06:17:04;41.53;;;19.27;;
22030;SDS011;11179;52.106;21.024;2024-02-26T06:19:30;34.97;;;16.57;;
22030;SDS011;11179;52.106;21.024;2024-02-26T06:21:55;42.77;;;18.80;;
22030;SDS011;11179;52.106;21.024;2024-02-26T06:24:20;44.03;;;18.70;;
22030;SDS011;11179;52.106;21.024;2024-02-26T06:26:47;39.87;;;19.43;;
22030;SDS011;11179;52.106;21.024;2024-02-26T06:29:13;47.10;;;20.83;;
22030;SDS011;11179;52.106;21.024;2024-02-26T06:31:38;55.60;;;23.43;;
22030;SDS011;11179;52.106;21.024;2024-02-26T06:34:03;50.63;;;24.33;;
22030;SDS011;11179;52.106;21.024;2024-02-26T06:36:29;62.13;;;23.90;;
22030;SDS011;11179;52.106;21.024;2024-02-26T06:38:56;54.57;;;24.80;;
22030;SDS011;11179;52.106;21.024;2024-02-26T06:41:21;58.97;;;24.07;;
22030;SDS011;11179;52.106;21.024;2024-02-26T06:43:52;53.13;;;23.53;;
22030;SDS011;11179;52.106;21.024;2024-02-26T06:46:18;61.20;;;25.60;;
22030;SDS011;11179;52.106;21.024;2024-02-26T06:48:43;76.90;;;29.50;;
22030;SDS011;11179;52.106;21.024;2024-02-26T06:51:08;70.90;;;28.10;;
22030;SDS011;11179;52.106;21.024;2024-02-26T06:53:33;71.60;;;27.97;;
22030;SDS011;11179;52.106;21.024;2024-02-26T06:55:59;58.57;;;25.80;;
22030;SDS011;11179;52.106;21.024;2024-02-26T06:58:24;30.70;;;12.50;;
22030;SDS011;11179;52.106;21.024;2024-02-26T07:00:50;58.83;;;22.03;;
22030;SDS011;11179;52.106;21.024;2024-02-26T07:03:15;49.30;;;22.50;;
22030;SDS011;11179;52.106;21.024;2024-02-26T07:05:40;42.37;;;19.23;;
22030;SDS011;11179;52.106;21.024;2024-02-26T07:08:06;36.23;;;18.10;;
22030;SDS011;11179;52.106;21.024;2024-02-26T07:10:31;41.17;;;18.40;;
22030;SDS011;11179;52.106;21.024;2024-02-26T07:12:57;37.00;;;17.90;;
22030;SDS011;11179;52.106;21.024;2024-02-26T07:15:22;37.47;;;17.47;;
22030;SDS011;11179;52.106;21.024;2024-02-26T07:17:47;35.80;;;16.80;;
22030;SDS011;11179;52.106;21.024;2024-02-26T07:20:14;35.20;;;17.43;;
22030;SDS011;11179;52.106;21.024;2024-02-26T07:22:40;40.70;;;16.50;;
22030;SDS011;11179;52.106;21.024;2024-02-26T07:25:07;33.93;;;17.87;;
22030;SDS011;11179;52.106;21.024;2024-02-26T07:27:33;35.13;;;17.10;;
22030;SDS011;11179;52.106;21.024;2024-02-26T07:29:59;28.00;;;16.40;;
22030;SDS011;11179;52.106;21.024;2024-02-26T07:32:24;35.30;;;16.03;;
22030;SDS011;11179;52.106;21.024;2024-02-26T07:34:50;32.40;;;16.60;;
22030;SDS011;11179;52.106;21.024;2024-02-26T07:37:15;31.50;;;15.90;;
22030;SDS011;11179;52.106;21.024;2024-02-26T07:39:41;34.80;;;16.47;;
22030;SDS011;11179;52.106;21.024;2024-02-26T07:42:06;33.20;;;15.93;;
22030;SDS011;11179;52.106;21.024;2024-02-26T07:44:32;29.27;;;15.37;;
22030;SDS011;11179;52.106;21.024;2024-02-26T07:46:58;36.83;;;16.80;;
22030;SDS011;11179;52.106;21.024;2024-02-26T07:49:24;35.83;;;15.33;;
22030;SDS011;11179;52.106;21.024;2024-02-26T07:51:49;31.27;;;15.23;;
22030;SDS011;11179;52.106;21.024;2024-02-26T07:54:14;26.77;;;14.70;;
22030;SDS011;11179;52.106;21.024;2024-02-26T07:56:41;23.70;;;14.10;;
22030;SDS011;11179;52.106;21.024;2024-02-26T07:59:06;25.33;;;13.80;;
22030;SDS011;11179;52.106;21.024;2024-02-26T08:01:32;26.53;;;13.87;;
22030;SDS011;11179;52.106;21.024;2024-02-26T08:03:58;27.27;;;14.60;;
22030;SDS011;11179;52.106;21.024;2024-02-26T08:06:24;31.53;;;14.70;;
22030;SDS011;11179;52.106;21.024;2024-02-26T08:08:50;27.87;;;13.97;;
22030;SDS011;11179;52.106;21.024;2024-02-26T08:11:15;25.03;;;13.90;;
22030;SDS011;11179;52.106;21.024;2024-02-26T08:13:41;26.87;;;13.20;;
22030;SDS011;11179;52.106;21.024;2024-02-26T08:16:06;24.57;;;14.20;;
22030;SDS011;11179;52.106;21.024;2024-02-26T08:18:32;33.63;;;14.23;;
22030;SDS011;11179;52.106;21.024;2024-02-26T08:20:57;26.30;;;13.37;;
22030;SDS011;11179;52.106;21.024;2024-02-26T08:23:22;22.30;;;13.63;;
22030;SDS011;11179;52.106;21.024;2024-02-26T08:25:48;23.87;;;13.17;;
22030;SDS011;11179;52.106;21.024;2024-02-26T08:28:13;23.30;;;13.27;;
22030;SDS011;11179;52.106;21.024;2024-02-26T08:30:39;23.23;;;13.40;;
22030;SDS011;11179;52.106;21.024;2024-02-26T08:33:04;36.77;;;13.87;;
22030;SDS011;11179;52.106;21.024;2024-02-26T08:35:29;23.83;;;12.53;;
22030;SDS011;11179;52.106;21.024;2024-02-26T08:37:55;22.90;;;13.00;;
22030;SDS011;11179;52.106;21.024;2024-02-26T08:40:20;24.93;;;12.70;;
22030;SDS011;11179;52.106;21.024;2024-02-26T08:42:46;27.53;;;12.97;;
22030;SDS011;11179;52.106;21.024;2024-02-26T08:45:11;26.23;;;12.80;;
22030;SDS011;11179;52.106;21.024;2024-02-26T08:47:40;24.07;;;13.60;;
22030;SDS011;11179;52.106;21.024;2024-02-26T08:50:05;26.70;;;14.63;;
22030;SDS011;11179;52.106;21.024;2024-02-26T08:52:31;25.13;;;12.90;;
22030;SDS011;11179;52.106;21.024;2024-02-26T08:54:56;24.60;;;12.63;;
22030;SDS011;11179;52.106;21.024;2024-02-26T08:57:22;29.63;;;13.50;;
22030;SDS011;11179;52.106;21.024;2024-02-26T08:59:48;24.90;;;13.17;;
22030;SDS011;11179;52.106;21.024;2024-02-26T09:02:13;35.37;;;13.40;;
22030;SDS011;11179;52.106;21.024;2024-02-26T09:04:38;20.70;;;12.20;;
22030;SDS011;11179;52.106;21.024;2024-02-26T09:07:04;25.53;;;12.90;;
22030;SDS011;11179;52.106;21.024;2024-02-26T09:09:29;21.97;;;12.10;;
22030;SDS011;11179;52.106;21.024;2024-02-26T09:11:55;24.10;;;12.43;;
22030;SDS011;11179;52.106;21.024;2024-02-26T09:14:20;22.47;;;13.03;;
22030;SDS011;11179;52.106;21.024;2024-02-26T09:16:46;23.23;;;12.70;;
22030;SDS011;11179;52.106;21.024;2024-02-26T09:19:13;26.70;;;12.23;;
22030;SDS011;11179;52.106;21.024;2024-02-26T09:21:42;21.13;;;11.83;;
22030;SDS011;11179;52.106;21.024;2024-02-26T09:24:11;22.00;;;11.23;;
22030;SDS011;11179;52.106;21.024;2024-02-26T09:26:36;21.13;;;12.10;;
22030;SDS011;11179;52.106;21.024;2024-02-26T09:29:02;20.93;;;12.63;;
22030;SDS011;11179;52.106;21.024;2024-02-26T09:31:29;19.50;;;11.57;;
22030;SDS011;11179;52.106;21.024;2024-02-26T09:33:54;23.87;;;11.53;;
22030;SDS011;11179;52.106;21.024;2024-02-26T09:36:20;25.53;;;12.33;;
22030;SDS011;11179;52.106;21.024;2024-02-26T09:38:46;28.13;;;12.90;;
22030;SDS011;11179;52.106;21.024;2024-02-26T09:41:13;28.10;;;12.47;;
22030;SDS011;11179;52.106;21.024;2024-02-26T09:43:40;19.80;;;10.63;;
22030;SDS011;11179;52.106;21.024;2024-02-26T09:46:14;18.80;;;10.77;;
22030;SDS011;11179;52.106;21.024;2024-02-26T09:48:40;22.33;;;12.00;;
22030;SDS011;11179;52.106;21.024;2024-02-26T09:51:08;28.30;;;12.60;;
22030;SDS011;11179;52.106;21.024;2024-02-26T09:53:35;17.40;;;10.53;;
22030;SDS011;11179;52.106;21.024;2024-02-26T09:56:05;21.00;;;12.10;;
22030;SDS011;11179;52.106;21.024;2024-02-26T09:58:32;26.77;;;11.63;;
22030;SDS011;11179;52.106;21.024;2024-02-26T10:00:58;21.87;;;12.80;;
22030;SDS011;11179;52.106;21.024;2024-02-26T10:03:31;22.50;;;13.30;;
22030;SDS011;11179;52.106;21.024;2024-02-26T10:06:03;19.97;;;11.40;;
22030;SDS011;11179;52.106;21.024;2024-02-26T10:08:31;23.63;;;12.13;;
22030;SDS011;11179;52.106;21.024;2024-02-26T10:10:57;24.33;;;13.07;;
22030;SDS011;11179;52.106;21.024;2024-02-26T10:13:22;24.60;;;13.43;;
22030;SDS011;11179;52.106;21.024;2024-02-26T10:15:48;21.87;;;10.13;;
22030;SDS011;11179;52.106;21.024;2024-02-26T10:18:14;21.50;;;12.30;;
22030;SDS011;11179;52.106;21.024;2024-02-26T10:20:39;24.20;;;11.53;;
22030;SDS011;11179;52.106;21.024;2024-02-26T10:23:05;20.70;;;11.50;;
22030;SDS011;11179;52.106;21.024;2024-02-26T10:25:31;24.40;;;12.77;;
22030;SDS011;11179;52.106;21.024;2024-02-26T10:28:00;21.60;;;12.20;;
22030;SDS011;11179;52.106;21.024;2024-02-26T10:30:29;19.03;;;10.60;;
22030;SDS011;11179;52.106;21.024;2024-02-26T10:32:55;20.33;;;10.70;;
22030;SDS011;11179;52.106;21.024;2024-02-26T10:35:21;18.27;;;10.57;;
22030;SDS011;11179;52.106;21.024;2024-02-26T10:37:47;19.53;;;10.27;;
22030;SDS011;11179;52.106;21.024;2024-02-26T10:40:14;20.80;;;10.10;;
22030;SDS011;11179;52.106;21.024;2024-02-26T10:42:40;16.87;;;9.67;;
22030;SDS011;11179;52.106;21.024;2024-02-26T10:45:06;17.60;;;10.23;;
22030;SDS011;11179;52.106;21.024;2024-02-26T10:47:34;17.97;;;9.70;;
22030;SDS011;11179;52.106;21.024;2024-02-26T10:50:04;25.07;;;11.57;;
22030;SDS011;11179;52.106;21.024;2024-02-26T10:52:34;18.17;;;9.37;;
22030;SDS011;11179;52.106;21.024;2024-02-26T10:55:01;22.73;;;10.70;;
22030;SDS011;11179;52.106;21.024;2024-02-26T11:00:00;18.87;;;9.10;;
22030;SDS011;11179;52.106;21.024;2024-02-26T11:02:29;23.73;;;9.00;;
22030;SDS011;11179;52.106;21.024;2024-02-26T11:04:57;15.10;;;8.40;;
22030;SDS011;11179;52.106;21.024;2024-02-26T11:07:24;19.47;;;8.90;;
22030;SDS011;11179;52.106;21.024;2024-02-26T11:09:50;18.57;;;9.20;;
22030;SDS011;11179;52.106;21.024;2024-02-26T11:12:17;15.40;;;8.20;;
22030;SDS011;11179;52.106;21.024;2024-02-26T11:14:44;12.90;;;7.60;;
22030;SDS011;11179;52.106;21.024;2024-02-26T11:17:11;13.27;;;7.27;;
22030;SDS011;11179;52.106;21.024;2024-02-26T11:19:38;12.13;;;7.20;;
22030;SDS011;11179;52.106;21.024;2024-02-26T11:22:06;15.43;;;8.10;;
22030;SDS011;11179;52.106;21.024;2024-02-26T11:24:32;12.20;;;6.77;;
22030;SDS011;11179;52.106;21.024;2024-02-26T11:26:58;11.53;;;6.50;;
22030;SDS011;11179;52.106;21.024;2024-02-26T11:29:29;12.53;;;7.57;;
22030;SDS011;11179;52.106;21.024;2024-02-26T11:32:02;17.93;;;6.97;;
22030;SDS011;11179;52.106;21.024;2024-02-26T11:34:28;14.43;;;7.07;;
22030;SDS011;11179;52.106;21.024;2024-02-26T11:36:54;10.70;;;5.90;;
22030;SDS011;11179;52.106;21.024;2024-02-26T11:39:21;12.47;;;6.70;;
22030;SDS011;11179;52.106;21.024;2024-02-26T11:41:47;11.30;;;5.60;;
22030;SDS011;11179;52.106;21.024;2024-02-26T11:44:12;11.27;;;5.50;;
22030;SDS011;11179;52.106;21.024;2024-02-26T11:46:38;13.77;;;6.67;;
22030;SDS011;11179;52.106;21.024;2024-02-26T11:51:53;12.27;;;6.40;;
22030;SDS011;11179;52.106;21.024;2024-02-26T11:54:45;11.40;;;6.50;;
22030;SDS011;11179;52.106;21.024;2024-02-26T11:59:49;11.67;;;5.47;;
22030;SDS011;11179;52.106;21.024;2024-02-26T12:05:06;9.40;;;4.63;;
22030;SDS011;11179;52.106;21.024;2024-02-26T12:07:37;9.80;;;5.23;;
22030;SDS011;11179;52.106;21.024;2024-02-26T12:10:14;8.30;;;4.93;;
22030;SDS011;11179;52.106;21.024;2024-02-26T12:12:41;12.33;;;5.00;;
22030;SDS011;11179;52.106;21.024;2024-02-26T12:15:07;9.10;;;5.00;;
22030;SDS011;11179;52.106;21.024;2024-02-26T12:17:33;11.70;;;5.47;;
22030;SDS011;11179;52.106;21.024;2024-02-26T12:20:10;10.10;;;4.90;;
22030;SDS011;11179;52.106;21.024;2024-02-26T12:22:37;11.03;;;4.93;;
22030;SDS011;11179;52.106;21.024;2024-02-26T12:25:05;6.83;;;3.47;;
22030;SDS011;11179;52.106;21.024;2024-02-26T12:27:31;8.83;;;4.47;;
22030;SDS011;11179;52.106;21.024;2024-02-26T12:29:56;9.87;;;5.00;;
22030;SDS011;11179;52.106;21.024;2024-02-26T12:32:22;10.87;;;4.97;;
22030;SDS011;11179;52.106;21.024;2024-02-26T12:34:48;10.10;;;4.67;;
22030;SDS011;11179;52.106;21.024;2024-02-26T12:37:15;8.70;;;4.40;;
22030;SDS011;11179;52.106;21.024;2024-02-26T12:39:41;8.73;;;4.63;;
22030;SDS011;11179;52.106;21.024;2024-02-26T12:42:06;9.63;;;5.23;;
22030;SDS011;11179;52.106;21.024;2024-02-26T12:44:32;7.90;;;4.30;;
22030;SDS011;11179;52.106;21.024;2024-02-26T12:47:00;8.73;;;4.53;;
22030;SDS011;11179;52.106;21.024;2024-02-26T12:49:29;8.80;;;3.63;;
22030;SDS011;11179;52.106;21.024;2024-02-26T12:51:55;8.53;;;4.40;;
22030;SDS011;11179;52.106;21.024;2024-02-26T12:54:26;8.43;;;4.47;;
22030;SDS011;11179;52.106;21.024;2024-02-26T12:56:54;6.90;;;3.63;;
22030;SDS011;11179;52.106;21.024;2024-02-26T12:59:20;16.07;;;4.43;;
22030;SDS011;11179;52.106;21.024;2024-02-26T13:01:46;8.90;;;3.90;;
22030;SDS011;11179;52.106;21.024;2024-02-26T13:04:11;7.40;;;3.87;;
22030;SDS011;11179;52.106;21.024;2024-02-26T13:06:37;7.50;;;3.50;;
22030;SDS011;11179;52.106;21.024;2024-02-26T13:09:02;6.03;;;3.00;;
22030;SDS011;11179;52.106;21.024;2024-02-26T13:11:28;7.60;;;3.70;;
22030;SDS011;11179;52.106;21.024;2024-02-26T13:13:54;8.70;;;3.60;;
22030;SDS011;11179;52.106;21.024;2024-02-26T13:16:20;8.10;;;3.33;;
22030;SDS011;11179;52.106;21.024;2024-02-26T13:18:49;6.27;;;3.10;;
22030;SDS011;11179;52.106;21.024;2024-02-26T13:21:15;10.83;;;3.10;;
22030;SDS011;11179;52.106;21.024;2024-02-26T13:23:43;11.93;;;4.27;;
22030;SDS011;11179;52.106;21.024;2024-02-26T13:26:11;7.40;;;3.80;;
22030;SDS011;11179;52.106;21.024;2024-02-26T13:28:38;9.23;;;3.93;;
22030;SDS011;11179;52.106;21.024;2024-02-26T13:31:04;7.50;;;4.03;;
22030;SDS011;11179;52.106;21.024;2024-02-26T13:33:32;15.57;;;3.80;;
22030;SDS011;11179;52.106;21.024;2024-02-26T13:35:58;6.83;;;3.40;;
22030;SDS011;11179;52.106;21.024;2024-02-26T13:38:25;6.07;;;3.00;;
22030;SDS011;11179;52.106;21.024;2024-02-26T13:40:50;7.37;;;3.23;;
22030;SDS011;11179;52.106;21.024;2024-02-26T13:43:16;10.53;;;3.70;;
22030;SDS011;11179;52.106;21.024;2024-02-26T13:45:42;7.97;;;3.23;;
22030;SDS011;11179;52.106;21.024;2024-02-26T13:48:09;6.20;;;2.80;;
22030;SDS011;11179;52.106;21.024;2024-02-26T13:50:36;10.03;;;3.77;;
22030;SDS011;11179;52.106;21.024;2024-02-26T13:53:05;6.67;;;3.30;;
22030;SDS011;11179;52.106;21.024;2024-02-26T13:55:31;7.30;;;3.60;;
22030;SDS011;11179;52.106;21.024;2024-02-26T13:57:57;8.30;;;3.90;;
22030;SDS011;11179;52.106;21.024;2024-02-26T14:00:24;7.50;;;3.23;;
22030;SDS011;11179;52.106;21.024;2024-02-26T14:02:50;10.03;;;4.13;;
22030;SDS011;11179;52.106;21.024;2024-02-26T14:05:16;8.33;;;3.63;;
22030;SDS011;11179;52.106;21.024;2024-02-26T14:07:41;7.10;;;3.50;;
22030;SDS011;11179;52.106;21.024;2024-02-26T14:10:07;7.37;;;3.70;;
22030;SDS011;11179;52.106;21.024;2024-02-26T14:12:35;7.93;;;3.97;;
22030;SDS011;11179;52.106;21.024;2024-02-26T14:15:00;8.23;;;4.00;;
22030;SDS011;11179;52.106;21.024;2024-02-26T14:17:29;8.77;;;3.80;;